Pagina principale
METAR-TAF:

METAR-TAF

Aeroporti :

Aeroporto di Ginevra-Cointrin

Ginevra, Svizzera

latitudine: 46-15N, longitudine: 006-08E, altezza: 420 m

Osservazione

Il bollettino è stato emesso 38 minuti fa, alle 23:50 UTC
Vento 1 kt da direzioni variabili
Temperature 13°C
Umidità 77%
Pressione 1017 hPa
Visibilità 10 km o più
nessuna nube inferiore a 1500 m e nessun cumulonembo

METAR: LSGG 152350Z AUTO VRB01KT CAVOK 13/09 Q1017 NOSIG

Ora: 02:28 (00:28 UTC)

Previsione

Il bollettino è stato emesso 1 ora e 3 minuti fa, alle 23:25 UTC
Previsione valida dal 16 alle 00 UTC al 17 alle 06 UTC
Vento 3 kt da direzioni variabili
Visibilità 10 km o più
nessuna nube inferiore a 1500 m e nessun cumulonembo

TAF: LSGG 152325Z 1600/1706 VRB03KT CAVOK TX23/1615Z TN09/1606Z TN08/1706Z

Osservazioni e previsioni meteorologiche di più di 4000 aeroporti (messaggi METAR e TAF).

Le stazioni disponibili sono rappresentate dai dischi gialli e rossi sulla carta.

Puntare il mouse per vedere il nome della stazione.

Clicca sopra per visualizzare le osservazioni e previsioni meteorologiche.

Per cambiare la mappa : fare clic sui pulsanti verdi con una croce nera per ingrandire, il pulsante verde con un trattino per diminuire, o sulla freccia verde per le mappe adiacenti.


METAR-TAF: